CNZ7 weather

Hanover (District Hospital) Heliport
Hanover, Ontario, Canada

Public forecast

Using degrees Celsius for public forecast. Weather courtesy of forecast.io.

METAR (pilot weather report)

Closest report is Wiarton Airport, 36.5 nm (67.6 km) N. Retrieved 2019/07/20 02:00 UTC (30 minutes ago):

CYVV 200200Z 23005KT 15SM FEW100 SCT250 25/23 A2979 RMK AC1CI4 AC TR WND ESTD SLP087 DENSITY ALT 2200FT

TAF (pilot weather forecast)

Forecast is more than 6 hours old.

Closest forecast is Wiarton Airport, 36.5 nm (67.6 km) N. Retrieved 2019/07/19 20:00 UTC (7 hours ago):

TAF CYVV 191941Z 1920/1923 23010KT P6SM SCT020 TEMPO 1920/1923 P6SM -SHRA BKN020 PROB30 1921/1923 VRB15G30KT 1SM +TSRA BR BKN007 OVC020CB RMK NXT FCST WILL BE ISSUED AT 201045Z